Main page
METAR-TAF:

METAR-TAF

Airports :

Linden Airport

Linden, New Jersey, United States

latitude: 40-37-03N, longitude: 074-14-40W, elevation: 23 ft

Current weather observation

The report was made 18 hours and 41 minutes ago, at 15:35 UTC
Wind 13 mph from the North with gusts up to 18 mph, varying between Northwest and North/Northeast
Temperature 64°F
Humidity 37%
Pressure 29.96 in. Hg
Visibility: 10 miles
Clear sky

METAR: KLDJ 211535Z AUTO 35011G16KT 320V030 10SM CLR 18/03 A2996 RMK AO2 T01750026

Time: 06:16 (10:16 UTC)


TAF: missing

Weather observations and forecasts of more than 4000 airports (METAR and TAF reports).

The available stations are represented by yellow and red dots on the map.

Hover mouse over dot to see the name of the station.

Then click to see weather observations and forecasts.

To change the map : click on the green buttons with a black cross to zoom in, on the green button with a dash to zoom out, or on the green arrows for adjacent maps.


METAR-TAF: